Mystic, CT (06355)

12:37 PM EDT on June 02, 2015 (GMT -0400)
Mystic | | Change Station
CLOSE
Current Station
Personal Weather Station
Location: Groton, CT
Elevation: 154 ft
Nearby Weather Stations

Elev 154 ft 41.36 °N, 71.97 °W | Updated 36 seconds ago

Rain
Rain
52.0 °F
Feels Like 52.0 °F
N
0.2
Wind Variable Wind from WSW
Gusts 2.5 mph

Today
High -- | Low -- °F
--% Chance of Precip.
Yesterday
High -- | Low -- °F
Precip. -- in
5:16 AM 8:15 PM
Full, 100% visible
Pressure 30.14 in
Visibility 6.0 miles
Clouds Overcast 900 ft
Dew Point 51 °F
Humidity 98%
Rainfall 0.24 in
Snow Depth Not available.
UV 2.0 out of 12
Pollen 1.00 out of 12
Air Quality Not available.
Flu Activity Local Activity
METAR KGON 021556Z 02009KT 6SM -RA BR OVC009 11/09 A3014 RMK AO2 CIG 007V014 SLP207 P0000 T01110089

More Conditions Fewer Conditions

Pressure 30.14 in
Visibility 6.0 miles
Clouds Overcast 900 ft
Dew Point 51 °F
Humidity 98%
Rainfall 0.24 in
Snow Depth Not available.
UV 2.0 out of 12
Pollen 1.00 out of 12
Air Quality Not available.
Flu Activity Local Activity
METAR KGON 021556Z 02009KT 6SM -RA BR OVC009 11/09 A3014 RMK AO2 CIG 007V014 SLP207 P0000 T01110089

More Conditions Fewer Conditions

10-Day Weather Forecast

Almanac

Astronomy

Jun. 02, 2015 Rise Set
Actual Time
Civil Twilight
Nautical Twilight
Astronomical Twilight
Moon
Length of Visible Light
Length of Day
Tomorrow will be .
, % of the Moon is Illuminated

Today's Extremes

State Highs State Lows

Community

WunderPhotos

Upload Photos

1,825,976 photos uploaded!

WunderBlogs® & News

Nearby

Air Quality

  Air Quality AQ Index Pollutant
Not available.

Snow Depth

Station Depth Elevation

Earthquake Activity

City Distance Mag. Time & Date
Minimum magnitude displayed is 2.5.

Coastal Water Temperatures

Place Temperature

Stations

Nearby Weather Stations

Station Location Temp. Windchill Dew Point Humidity Wind Precip. Elev Updated Type